createdAt,value
2022-11-08T00:02:24.629Z,98155.56
2022-11-08T00:04:51.653Z,98151.25
2022-11-08T00:07:37.042Z,98114.75
2022-11-08T00:10:23.179Z,98147.28
2022-11-08T00:13:08.907Z,98147.59
2022-11-08T00:15:39.190Z,98146.09
2022-11-08T00:18:07.956Z,98148.09
2022-11-08T00:20:35.411Z,98150.09
2022-11-08T00:23:02.541Z,98135.28
2022-11-08T00:25:29.490Z,98135.28
2022-11-08T00:27:56.419Z,98122.00
2022-11-08T00:30:23.454Z,98133.97
2022-11-08T00:32:50.288Z,98106.94
2022-11-08T00:35:17.285Z,98104.94
2022-11-08T00:37:44.165Z,98107.94
2022-11-08T00:40:12.021Z,98097.47
2022-11-08T00:42:38.942Z,98094.16
2022-11-08T00:45:06.303Z,98079.91
2022-11-08T00:47:33.977Z,98090.00
2022-11-08T00:50:00.867Z,98086.19
2022-11-08T00:52:28.008Z,98085.88
2022-11-08T00:54:54.844Z,98095.63
2022-11-08T00:57:27.494Z,98084.38
2022-11-08T01:00:08.687Z,98087.16
2022-11-08T01:02:35.776Z,98082.03
2022-11-08T01:05:02.705Z,98076.91
2022-11-08T01:07:29.535Z,98085.84
2022-11-08T01:09:56.533Z,98081.53
2022-11-08T01:12:23.373Z,98076.38
2022-11-08T01:14:50.478Z,98078.19
2022-11-08T01:17:17.394Z,98056.97
2022-11-08T01:19:44.258Z,98068.75
2022-11-08T01:22:11.083Z,98075.03
2022-11-08T01:24:38.111Z,98066.28
2022-11-08T01:27:05.055Z,98064.59
2022-11-08T01:29:33.196Z,98068.25
2022-11-08T01:32:00.026Z,98062.94
2022-11-08T01:34:26.966Z,98066.59
2022-11-08T01:36:53.805Z,98065.22
2022-11-08T01:39:20.749Z,98066.03
2022-11-08T01:41:47.790Z,98047.47
2022-11-08T01:44:17.959Z,98052.97
2022-11-08T01:46:48.017Z,98058.28
2022-11-08T01:49:33.433Z,98055.75
2022-11-08T01:52:12.531Z,98060.22
2022-11-08T01:54:46.217Z,98057.41
2022-11-08T01:57:20.180Z,98058.72
2022-11-08T01:59:51.138Z,98062.38
2022-11-08T02:02:18.520Z,98055.72
2022-11-08T02:04:45.578Z,98067.84
2022-11-08T02:07:14.317Z,98074.81
2022-11-08T02:09:45.985Z,98070.50
2022-11-08T02:12:13.112Z,98072.31
2022-11-08T02:14:40.044Z,98075.13
2022-11-08T02:17:08.173Z,98052.91
2022-11-08T02:19:53.074Z,98054.09
2022-11-08T02:23:12.269Z,98058.56
2022-11-08T02:25:39.159Z,98060.38
2022-11-08T02:28:06.084Z,98069.31
2022-11-08T02:30:34.614Z,98078.28
2022-11-08T02:33:01.637Z,98072.13
2022-11-08T02:35:28.565Z,98086.22
2022-11-08T02:37:55.593Z,98088.88
2022-11-08T02:40:22.445Z,98060.69
2022-11-08T02:42:49.516Z,98046.59
2022-11-08T02:45:16.500Z,98056.22
2022-11-08T02:47:44.924Z,98062.50
2022-11-08T02:50:11.880Z,98062.50
2022-11-08T02:52:38.725Z,98085.53
2022-11-08T02:55:05.985Z,98086.53
2022-11-08T02:57:33.181Z,98088.34
2022-11-08T03:00:00.113Z,98071.59
2022-11-08T03:02:27.182Z,98076.91
2022-11-08T03:04:54.125Z,98067.16
2022-11-08T03:07:24.816Z,98077.75
2022-11-08T03:09:52.084Z,98110.38
2022-11-08T03:12:20.479Z,98104.25
2022-11-08T03:14:47.353Z,98121.13
2022-11-08T03:17:14.366Z,98134.38
2022-11-08T03:19:41.263Z,98127.56
2022-11-08T03:22:08.200Z,98124.94
2022-11-08T03:24:35.105Z,98137.38
2022-11-08T03:27:03.376Z,98135.38
2022-11-08T03:29:30.237Z,98146.97
2022-11-08T03:31:57.113Z,98140.03
2022-11-08T03:34:24.007Z,98149.78
2022-11-08T03:36:50.928Z,98155.94
2022-11-08T03:39:17.820Z,98148.94
2022-11-08T03:41:45.082Z,98151.59
2022-11-08T03:44:11.929Z,98151.78
2022-11-08T03:46:38.798Z,98156.06
2022-11-08T03:49:05.729Z,98152.41
2022-11-08T03:51:32.591Z,98151.78
2022-11-08T03:53:59.499Z,98165.03
2022-11-08T03:56:26.408Z,98157.06
2022-11-08T03:58:53.287Z,98148.28
2022-11-08T04:01:20.327Z,98147.28
2022-11-08T04:03:47.251Z,98140.34
2022-11-08T04:06:14.099Z,98139.50
2022-11-08T04:08:40.958Z,98137.69
2022-11-08T04:11:26.282Z,98129.75
2022-11-08T04:14:12.039Z,98133.38
2022-11-08T04:16:38.876Z,98140.34
2022-11-08T04:19:24.564Z,98133.38
2022-11-08T04:21:53.827Z,98134.19
2022-11-08T04:24:21.736Z,98129.75
2022-11-08T04:26:48.842Z,98144.81
2022-11-08T04:29:15.805Z,98147.59
2022-11-08T04:31:42.814Z,98156.38
2022-11-08T04:34:09.859Z,98159.88
2022-11-08T04:36:36.775Z,98167.16
2022-11-08T04:39:04.458Z,98168.78
2022-11-08T04:41:31.459Z,98159.19
2022-11-08T04:43:58.340Z,98161.00
2022-11-08T04:46:27.696Z,98160.19
2022-11-08T04:48:56.977Z,98161.00
2022-11-08T04:51:28.715Z,98158.53
2022-11-08T04:53:57.901Z,98157.69
2022-11-08T04:56:25.883Z,98171.78
2022-11-08T04:58:55.398Z,98168.28
2022-11-08T05:01:25.064Z,98175.41
2022-11-08T05:03:53.791Z,98174.56
2022-11-08T05:06:23.818Z,98175.41
2022-11-08T05:08:51.457Z,98169.44
2022-11-08T05:11:21.488Z,98169.44
2022-11-08T05:13:49.728Z,98179.19
2022-11-08T05:16:19.930Z,98174.75
2022-11-08T05:18:47.139Z,98171.41
2022-11-08T05:21:35.767Z,98171.41
2022-11-08T05:24:04.668Z,98187.28
2022-11-08T05:26:34.395Z,98172.41
2022-11-08T05:29:01.419Z,98174.22
2022-11-08T05:31:28.393Z,98162.59
2022-11-08T05:33:55.364Z,98173.38
2022-11-08T05:36:22.482Z,98173.38
2022-11-08T05:38:49.276Z,98174.38
2022-11-08T05:41:21.024Z,98177.03
2022-11-08T05:43:50.533Z,98180.66
2022-11-08T05:46:18.759Z,98180.66
2022-11-08T05:48:47.150Z,98189.59
2022-11-08T05:51:16.601Z,98190.59
2022-11-08T05:53:43.580Z,98177.97
2022-11-08T05:56:10.527Z,98189.13
2022-11-08T05:58:37.751Z,98188.00
2022-11-08T06:01:10.098Z,98182.16
2022-11-08T06:03:37.849Z,98189.00
2022-11-08T06:06:10.143Z,98192.66
2022-11-08T06:08:37.620Z,98195.78
2022-11-08T06:11:19.999Z,98198.91
2022-11-08T06:13:46.869Z,98196.25
2022-11-08T06:16:15.794Z,98197.75
2022-11-08T06:18:43.258Z,98201.25
2022-11-08T06:21:15.166Z,98196.59
2022-11-08T06:23:42.618Z,98186.69
2022-11-08T06:26:10.002Z,98186.69
2022-11-08T06:28:36.826Z,98189.19
2022-11-08T06:31:04.974Z,98183.88
2022-11-08T06:33:32.319Z,98183.06
2022-11-08T06:35:59.288Z,98167.81
2022-11-08T06:38:26.304Z,98177.44
2022-11-08T06:40:53.084Z,98173.78
2022-11-08T06:43:20.475Z,98163.00
2022-11-08T06:45:47.813Z,98173.78
2022-11-08T06:48:14.699Z,98166.66
2022-11-08T06:50:42.380Z,98169.31
2022-11-08T06:53:12.452Z,98170.16
2022-11-08T06:55:39.557Z,98184.06
2022-11-08T06:58:06.737Z,98198.34
2022-11-08T07:00:33.671Z,98192.34
2022-11-08T07:03:03.720Z,98195.16
2022-11-08T07:05:32.686Z,98180.09
2022-11-08T07:08:00.445Z,98172.97
2022-11-08T07:10:29.702Z,98173.78
2022-11-08T07:13:02.077Z,98174.63
2022-11-08T07:15:30.115Z,98180.75
2022-11-08T07:18:16.692Z,98194.19
2022-11-08T07:20:44.056Z,98191.66
2022-11-08T07:23:11.874Z,98201.59
2022-11-08T07:25:39.277Z,98201.75
2022-11-08T07:28:08.397Z,98199.81
2022-11-08T07:30:36.293Z,98206.63
2022-11-08T07:33:03.688Z,98197.34
2022-11-08T07:35:30.874Z,98205.13
2022-11-08T07:37:57.900Z,98205.81
2022-11-08T07:40:25.480Z,98207.47
2022-11-08T07:45:40.558Z,98212.75
2022-11-08T07:48:12.313Z,98217.09
2022-11-08T07:50:41.752Z,98201.81
2022-11-08T07:53:09.686Z,98226.69
2022-11-08T07:55:37.939Z,98232.97
2022-11-08T07:58:06.016Z,98228.53
2022-11-08T08:00:38.737Z,98231.84
2022-11-08T08:03:07.557Z,98233.34
2022-11-08T08:05:39.971Z,98234.00
2022-11-08T08:08:07.669Z,98241.00
2022-11-08T08:10:35.390Z,98239.31
2022-11-08T08:13:02.727Z,98244.63
2022-11-08T08:15:29.960Z,98248.09
2022-11-08T08:17:59.591Z,98242.81
2022-11-08T08:20:26.650Z,98244.47
2022-11-08T08:22:53.480Z,98250.28
2022-11-08T08:25:20.754Z,98251.28
2022-11-08T08:27:49.189Z,98237.50
2022-11-08T08:30:17.814Z,98249.97
2022-11-08T08:32:50.253Z,98249.97
2022-11-08T08:35:20.756Z,98246.66
2022-11-08T08:37:47.753Z,98243.34
2022-11-08T08:40:15.036Z,98236.88
2022-11-08T08:42:42.311Z,98239.38
2022-11-08T08:45:14.915Z,98236.72
2022-11-08T08:47:42.685Z,98239.38
2022-11-08T08:50:10.321Z,98242.69
2022-11-08T08:52:37.237Z,98236.88
2022-11-08T08:55:04.363Z,98234.38
2022-11-08T08:57:31.459Z,98227.44
2022-11-08T09:02:45.504Z,98232.41
2022-11-08T09:05:13.956Z,98227.94
2022-11-08T09:07:41.959Z,98219.78
2022-11-08T09:10:10.746Z,98229.75
2022-11-08T09:12:38.740Z,98229.75
2022-11-08T09:15:08.064Z,98230.59
2022-11-08T09:17:35.071Z,98224.31
2022-11-08T09:20:02.250Z,98233.22
2022-11-08T09:22:29.742Z,98228.78
2022-11-08T09:24:56.945Z,98242.03
2022-11-08T09:27:24.019Z,98241.03
2022-11-08T09:29:51.088Z,98235.75
2022-11-08T09:32:24.782Z,98242.56
2022-11-08T09:35:00.823Z,98242.38
2022-11-08T09:37:29.292Z,98253.16
2022-11-08T09:39:56.485Z,98242.56
2022-11-08T09:42:26.254Z,98241.53
2022-11-08T09:44:59.204Z,98241.53
2022-11-08T09:47:36.842Z,98240.41
2022-11-08T09:50:23.380Z,98234.44
2022-11-08T09:53:01.675Z,98234.59
2022-11-08T09:55:42.590Z,98229.31
2022-11-08T09:58:12.791Z,98239.91
2022-11-08T10:00:41.538Z,98235.44
2022-11-08T10:03:15.913Z,98228.16
2022-11-08T10:06:06.835Z,98237.91
2022-11-08T10:09:18.662Z,98231.47
2022-11-08T10:12:18.349Z,98215.22
2022-11-08T10:15:38.747Z,98225.97
2022-11-08T10:18:17.833Z,98218.16
2022-11-08T10:21:11.519Z,98217.50
2022-11-08T10:23:47.110Z,98214.84
2022-11-08T10:26:30.047Z,98218.47
2022-11-08T10:29:03.625Z,98216.13
2022-11-08T10:31:35.503Z,98202.38
2022-11-08T10:34:05.124Z,98216.00
2022-11-08T10:36:42.752Z,98203.72
2022-11-08T10:39:09.755Z,98184.16
2022-11-08T10:41:53.270Z,98189.63
2022-11-08T10:44:25.565Z,98185.03
2022-11-08T10:46:59.768Z,98197.28
2022-11-08T10:49:47.288Z,98205.22
2022-11-08T10:52:17.284Z,98207.88
2022-11-08T10:54:52.963Z,98203.41
2022-11-08T10:57:38.677Z,98199.78
2022-11-08T11:00:27.715Z,98213.72
2022-11-08T11:03:06.940Z,98185.34
2022-11-08T11:05:41.407Z,98199.63
2022-11-08T11:08:08.390Z,98194.19
2022-11-08T11:10:45.826Z,98191.34
2022-11-08T11:13:25.198Z,98189.69
2022-11-08T11:16:01.079Z,98200.66
2022-11-08T11:18:28.282Z,98187.38
2022-11-08T11:21:24.734Z,98180.13
2022-11-08T11:23:55.220Z,98164.53
2022-11-08T11:26:44.900Z,98166.19
2022-11-08T11:29:24.146Z,98167.19
2022-11-08T11:31:54.120Z,98167.88
2022-11-08T11:34:36.439Z,98178.47
2022-11-08T11:37:15.198Z,98163.41
2022-11-08T11:40:11.214Z,98164.72
2022-11-08T11:42:48.107Z,98164.59
2022-11-08T11:45:33.330Z,98159.28
2022-11-08T11:48:10.862Z,98158.66
2022-11-08T11:50:40.678Z,98152.22
2022-11-08T11:53:28.314Z,98143.41
2022-11-08T11:56:04.201Z,98150.28
2022-11-08T11:58:44.441Z,98150.78
2022-11-08T12:01:43.298Z,98137.06
2022-11-08T12:04:34.882Z,98134.44
2022-11-08T12:07:27.964Z,98127.66
2022-11-08T12:10:12.848Z,98126.31
2022-11-08T12:12:51.366Z,98128.47
2022-11-08T12:15:37.956Z,98121.38
2022-11-08T12:18:07.505Z,98115.75
2022-11-08T12:21:12.839Z,98108.78
2022-11-08T12:23:56.715Z,98106.47
2022-11-08T12:27:04.042Z,98097.84
2022-11-08T12:29:47.240Z,98086.78
2022-11-08T12:32:31.784Z,98085.09
2022-11-08T12:35:25.809Z,98092.22
2022-11-08T12:38:17.347Z,98087.25
2022-11-08T12:40:44.602Z,98085.94
2022-11-08T12:43:24.281Z,98077.59
2022-11-08T12:46:19.763Z,98077.28
2022-11-08T12:49:01.076Z,98071.16
2022-11-08T12:51:53.057Z,98065.19
2022-11-08T12:54:30.121Z,98059.03
2022-11-08T12:57:02.908Z,98053.06
2022-11-08T12:59:37.575Z,98048.41
2022-11-08T13:02:12.218Z,98043.59
2022-11-08T13:04:56.458Z,98032.13
2022-11-08T13:07:28.667Z,98033.59
2022-11-08T13:09:58.452Z,98029.13
2022-11-08T13:12:37.201Z,98022.00
2022-11-08T13:15:06.923Z,98008.06
2022-11-08T13:17:33.929Z,98015.16
2022-11-08T13:20:05.924Z,98011.16
2022-11-08T13:22:32.989Z,98001.22
2022-11-08T13:25:09.430Z,98009.50
2022-11-08T13:27:43.079Z,98003.38
2022-11-08T13:30:15.811Z,97993.91
2022-11-08T13:33:01.649Z,97996.56
2022-11-08T13:35:39.320Z,97984.13
2022-11-08T13:38:28.234Z,97985.94
2022-11-08T13:41:04.192Z,97995.75
2022-11-08T13:43:33.502Z,97990.25
2022-11-08T13:46:31.152Z,97986.78
2022-11-08T13:48:58.207Z,97983.09
2022-11-08T13:51:29.769Z,97972.31
2022-11-08T13:53:58.464Z,97979.56
2022-11-08T13:56:27.174Z,97983.91
2022-11-08T13:58:54.323Z,97970.44
2022-11-08T14:01:21.283Z,97964.00
2022-11-08T14:03:48.551Z,97966.28
2022-11-08T14:06:28.567Z,97970.09
2022-11-08T14:09:40.492Z,97959.13
2022-11-08T14:12:22.294Z,97951.97
2022-11-08T14:15:23.086Z,97956.66
2022-11-08T14:17:54.680Z,97952.97
2022-11-08T14:20:30.784Z,97957.09
2022-11-08T14:23:02.638Z,97950.81
2022-11-08T14:25:34.530Z,97946.31
2022-11-08T14:28:01.997Z,97948.00
2022-11-08T14:30:29.066Z,97942.00
2022-11-08T14:33:18.312Z,97936.88
2022-11-08T14:36:01.606Z,97942.84
2022-11-08T14:38:30.983Z,97937.84
2022-11-08T14:41:07.151Z,97931.56
2022-11-08T14:43:44.219Z,97936.69
2022-11-08T14:46:19.811Z,97927.84
2022-11-08T14:48:52.618Z,97925.97
2022-11-08T14:51:19.951Z,97926.94
2022-11-08T14:53:49.504Z,97920.88
2022-11-08T14:56:37.023Z,97917.03
2022-11-08T14:59:10.631Z,97914.53
2022-11-08T15:01:38.416Z,97914.66
2022-11-08T15:04:19.071Z,97903.50
2022-11-08T15:06:49.330Z,97911.78
2022-11-08T15:09:29.043Z,97910.03
2022-11-08T15:11:59.187Z,97915.00
2022-11-08T15:14:29.356Z,97917.47
2022-11-08T15:17:02.599Z,97903.66
2022-11-08T15:19:34.996Z,97902.28
2022-11-08T15:22:04.466Z,97909.56
2022-11-08T15:24:40.120Z,97903.53
2022-11-08T15:27:13.053Z,97906.09
2022-11-08T15:29:53.544Z,97903.72
2022-11-08T15:32:22.266Z,97910.31
2022-11-08T15:34:54.254Z,97910.97
2022-11-08T15:37:27.960Z,97910.59
2022-11-08T15:39:55.885Z,97910.44
2022-11-08T15:42:23.063Z,97896.50
2022-11-08T15:45:01.325Z,97914.00
2022-11-08T15:47:43.579Z,97905.03
2022-11-08T15:50:31.651Z,97921.00
2022-11-08T15:53:00.587Z,97923.56
2022-11-08T15:55:30.054Z,97911.44
2022-11-08T15:57:59.332Z,97911.88
2022-11-08T16:00:38.717Z,97920.97
2022-11-08T16:03:05.714Z,97918.44
2022-11-08T16:05:32.775Z,97909.03
2022-11-08T16:08:00.589Z,97901.06
2022-11-08T16:10:41.815Z,97905.44
2022-11-08T16:13:19.748Z,97890.28
2022-11-08T16:15:47.531Z,97895.59
2022-11-08T16:18:15.071Z,97898.34
2022-11-08T16:20:42.496Z,97903.00
2022-11-08T16:23:11.744Z,97906.03
2022-11-08T16:25:46.359Z,97912.34
2022-11-08T16:28:41.102Z,97910.97
2022-11-08T16:31:14.005Z,97914.72
2022-11-08T16:33:43.151Z,97923.06
2022-11-08T16:36:24.980Z,97922.56
2022-11-08T16:39:03.138Z,97934.75
2022-11-08T16:41:32.659Z,97922.50
2022-11-08T16:44:00.614Z,97926.00
2022-11-08T16:46:31.703Z,97932.84
2022-11-08T16:49:00.435Z,97925.91
2022-11-08T16:51:28.870Z,97936.19
2022-11-08T16:53:55.925Z,97931.41
2022-11-08T16:56:23.453Z,97943.22
2022-11-08T16:58:51.475Z,97932.25
2022-11-08T17:01:23.927Z,97923.16
2022-11-08T17:03:51.111Z,97934.22
2022-11-08T17:06:19.446Z,97944.91
2022-11-08T17:08:46.871Z,97940.97
2022-11-08T17:11:20.044Z,97935.31
2022-11-08T17:13:48.191Z,97940.78
2022-11-08T17:16:16.606Z,97945.44
2022-11-08T17:18:47.456Z,97944.97
2022-11-08T17:21:43.011Z,97938.34
2022-11-08T17:24:04.848Z,97946.97
2022-11-08T17:26:31.850Z,97938.84
2022-11-08T17:28:58.886Z,97942.75
2022-11-08T17:31:26.457Z,97929.78
2022-11-08T17:33:55.881Z,97932.81
2022-11-08T17:36:23.128Z,97928.31
2022-11-08T17:38:50.425Z,97922.47
2022-11-08T17:41:18.386Z,97919.47
2022-11-08T17:43:47.991Z,97930.03
2022-11-08T17:46:15.479Z,97930.00
2022-11-08T17:48:42.424Z,97928.34
2022-11-08T17:51:09.771Z,97932.13
2022-11-08T17:53:36.933Z,97927.97
2022-11-08T17:56:06.080Z,97935.16
2022-11-08T17:58:34.568Z,97934.97
2022-11-08T18:01:04.573Z,97942.44
2022-11-08T18:03:32.581Z,97942.09
2022-11-08T18:06:00.044Z,97930.81
2022-11-08T18:08:29.282Z,97937.72
2022-11-08T18:10:56.845Z,97932.22
2022-11-08T18:13:27.723Z,97946.09
2022-11-08T18:15:54.964Z,97949.41
2022-11-08T18:18:22.007Z,97957.88
2022-11-08T18:20:55.636Z,97947.06
2022-11-08T18:23:25.189Z,97953.78
2022-11-08T18:25:53.864Z,97944.06
2022-11-08T18:28:22.735Z,97940.88
2022-11-08T18:30:50.486Z,97936.38
2022-11-08T18:33:19.139Z,97944.56
2022-11-08T18:35:47.351Z,97941.06
2022-11-08T18:38:15.411Z,97947.66
2022-11-08T18:40:46.386Z,97950.31
2022-11-08T18:43:13.718Z,97957.31
2022-11-08T18:45:43.648Z,97962.28
2022-11-08T18:48:12.389Z,97958.59
2022-11-08T18:50:40.412Z,97973.38
2022-11-08T18:53:10.180Z,97973.94
2022-11-08T18:55:37.445Z,97980.63
2022-11-08T18:58:04.648Z,97984.63
2022-11-08T19:00:32.034Z,97989.03
2022-11-08T19:02:59.431Z,97990.78
2022-11-08T19:05:26.642Z,97986.06
2022-11-08T19:07:55.105Z,97989.59
2022-11-08T19:10:22.522Z,97995.63
2022-11-08T19:12:49.943Z,97990.31
2022-11-08T19:15:17.140Z,97985.31
2022-11-08T19:17:49.814Z,97990.63
2022-11-08T19:20:20.174Z,97985.47
2022-11-08T19:22:47.728Z,97986.31
2022-11-08T19:25:17.741Z,97989.31
2022-11-08T19:27:45.194Z,97995.78
2022-11-08T19:30:13.100Z,97995.47
2022-11-08T19:32:40.240Z,97994.44
2022-11-08T19:35:08.021Z,97995.63
2022-11-08T19:37:35.276Z,98008.59
2022-11-08T19:40:02.323Z,98001.25
2022-11-08T19:42:29.560Z,98006.41
2022-11-08T19:44:56.737Z,98001.63
2022-11-08T19:47:23.856Z,98001.63
2022-11-08T19:49:50.991Z,97997.28
2022-11-08T19:52:18.297Z,97992.81
2022-11-08T19:54:46.761Z,98000.59
2022-11-08T19:57:13.664Z,98004.28
2022-11-08T19:59:41.138Z,98002.91
2022-11-08T20:02:09.779Z,98010.88
2022-11-08T20:04:37.347Z,98011.88
2022-11-08T20:07:04.703Z,98013.19
2022-11-08T20:09:36.092Z,98009.56
2022-11-08T20:12:06.234Z,98012.38
2022-11-08T20:14:34.042Z,98017.97
2022-11-08T20:17:01.812Z,98008.19
2022-11-08T20:19:29.500Z,98014.81
2022-11-08T20:21:58.171Z,98014.44
2022-11-08T20:24:26.003Z,98008.06
2022-11-08T20:26:53.210Z,98004.03
2022-11-08T20:29:20.873Z,98009.50
2022-11-08T20:31:52.679Z,98011.59
2022-11-08T20:34:20.088Z,98021.56
2022-11-08T20:36:48.136Z,98016.72
2022-11-08T20:39:15.789Z,98013.50
2022-11-08T20:41:43.428Z,98010.34
2022-11-08T20:44:10.848Z,98005.72
2022-11-08T20:46:38.868Z,98020.78
2022-11-08T20:49:07.006Z,98024.91
2022-11-08T20:51:35.725Z,98028.03
2022-11-08T20:54:03.246Z,98011.75
2022-11-08T20:56:30.969Z,98029.69
2022-11-08T20:58:58.396Z,98032.72
2022-11-08T21:01:28.698Z,98020.00
2022-11-08T21:03:56.386Z,98026.75
2022-11-08T21:06:26.212Z,98026.56
2022-11-08T21:09:01.852Z,98029.13
2022-11-08T21:11:34.838Z,98034.03
2022-11-08T21:14:03.090Z,98042.72
2022-11-08T21:16:38.298Z,98047.28
2022-11-08T21:19:14.390Z,98050.78
2022-11-08T21:21:42.225Z,98042.97
2022-11-08T21:24:10.018Z,98051.78
2022-11-08T21:26:37.969Z,98055.63
2022-11-08T21:29:07.873Z,98056.81
2022-11-08T21:31:35.138Z,98059.28
2022-11-08T21:34:05.142Z,98058.47
2022-11-08T21:36:33.571Z,98059.16
2022-11-08T21:39:01.950Z,98068.47
2022-11-08T21:41:30.125Z,98072.97
2022-11-08T21:43:59.069Z,98073.16
2022-11-08T21:46:28.315Z,98080.66
2022-11-08T21:48:57.650Z,98088.16
2022-11-08T21:51:26.055Z,98093.31
2022-11-08T21:53:56.090Z,98101.47
2022-11-08T21:56:25.247Z,98103.28
2022-11-08T21:58:53.907Z,98108.63
2022-11-08T22:01:24.309Z,98114.09
2022-11-08T22:03:54.728Z,98112.16
2022-11-08T22:06:23.093Z,98112.94
2022-11-08T22:08:50.518Z,98121.31
2022-11-08T22:11:17.605Z,98130.28
2022-11-08T22:13:44.720Z,98133.44
2022-11-08T22:16:11.602Z,98135.91
2022-11-08T22:21:43.556Z,98135.06
2022-11-08T22:24:18.485Z,98133.44
2022-11-08T22:26:46.118Z,98134.22
2022-11-08T22:29:13.633Z,98133.44
2022-11-08T22:31:41.037Z,98139.72
2022-11-08T22:34:09.473Z,98143.38
2022-11-08T22:36:44.094Z,98147.91
2022-11-08T22:39:16.840Z,98147.22
2022-11-08T22:41:44.531Z,98148.19
2022-11-08T22:44:12.876Z,98150.19
2022-11-08T22:46:45.037Z,98159.19
2022-11-08T22:49:12.973Z,98162.81
2022-11-08T22:51:40.841Z,98162.50
2022-11-08T22:54:08.235Z,98168.47
2022-11-08T22:56:36.260Z,98171.16
2022-11-08T22:59:03.652Z,98170.50
2022-11-08T23:01:30.552Z,98174.97
2022-11-08T23:03:57.989Z,98174.84
2022-11-08T23:06:24.868Z,98183.81
2022-11-08T23:08:51.840Z,98187.50
2022-11-08T23:11:37.553Z,98176.56
2022-11-08T23:14:23.627Z,98178.72
2022-11-08T23:16:50.529Z,98175.56
2022-11-08T23:19:40.578Z,98175.56
2022-11-08T23:22:30.609Z,98179.06
2022-11-08T23:24:57.828Z,98181.84
2022-11-08T23:27:44.329Z,98166.06
2022-11-08T23:30:33.413Z,98177.69
2022-11-08T23:33:00.591Z,98183.47
2022-11-08T23:35:27.665Z,98187.78
2022-11-08T23:37:55.229Z,98188.28
2022-11-08T23:40:41.081Z,98202.03
2022-11-08T23:43:36.931Z,98206.19
2022-11-08T23:46:12.120Z,98208.31
2022-11-08T23:48:40.318Z,98197.50
2022-11-08T23:51:08.006Z,98207.47
2022-11-08T23:53:37.392Z,98216.75
2022-11-08T23:56:04.748Z,98223.34
2022-11-08T23:58:32.581Z,98223.84
